Time;durP1;ratioP1;P1;durP2;ratioP2;P2;SDS_P1;SDS_P2;PMS_P1;PMS_P2;Temp;Humidity;BMP_temperature;BMP_pressure;BME280_temperature;BME280_humidity;BME280_pressure;Samples;Min_cycle;Max_cycle;Signal;HPM_P1;HPM_P2
2023/05/21 00:01:38;;;;;;;30.57;21.27;;;17.90;1.00;;;;;;4986746;28;20586;-74
2023/05/21 00:04:06;;;;;;;23.77;19.67;;;17.80;1.00;;;;;;4986347;28;20190;-74
2023/05/21 00:06:34;;;;;;;25.57;20.80;;;17.80;1.00;;;;;;4985214;28;20513;-73
2023/05/21 00:09:03;;;;;;;26.60;18.90;;;17.70;1.00;;;;;;4987587;28;20992;-74
2023/05/21 00:11:29;;;;;;;25.73;19.50;;;17.70;1.00;;;;;;4981605;28;20454;-74
2023/05/21 00:13:55;;;;;;;26.50;20.40;;;17.60;1.00;;;;;;4987852;28;20457;-74
2023/05/21 00:16:21;;;;;;;29.20;20.03;;;17.70;1.00;;;;;;4984820;28;20703;-74
2023/05/21 00:18:48;;;;;;;27.10;20.70;;;17.70;1.00;;;;;;4984057;28;20282;-74
2023/05/21 00:21:16;;;;;;;25.10;20.50;;;17.60;1.00;;;;;;4980390;28;20975;-74
2023/05/21 00:23:46;;;;;;;24.40;19.63;;;17.60;1.00;;;;;;4984001;28;20485;-74
2023/05/21 00:26:12;;;;;;;27.10;19.83;;;17.60;1.00;;;;;;4984488;28;20462;-74
2023/05/21 00:28:37;;;;;;;29.40;20.13;;;17.60;1.00;;;;;;4987629;28;22231;-74
2023/05/21 00:31:03;;;;;;;25.30;20.50;;;17.50;1.00;;;;;;4984273;28;20245;-73
2023/05/21 00:33:29;;;;;;;26.60;20.57;;;17.60;1.00;;;;;;4984586;28;20191;-74
2023/05/21 00:35:56;;;;;;;26.53;19.87;;;17.60;1.00;;;;;;4987940;28;20290;-75
2023/05/21 00:38:22;;;;;;;26.63;20.23;;;17.60;1.00;;;;;;4989856;28;20444;-74
2023/05/21 00:40:48;;;;;;;25.50;19.63;;;17.60;1.00;;;;;;4990308;28;20528;-72
2023/05/21 00:43:13;;;;;;;24.60;20.07;;;17.60;1.00;;;;;;4986306;28;20455;-75
2023/05/21 00:45:43;;;;;;;25.70;19.63;;;17.70;1.00;;;;;;4977206;28;20219;-74
2023/05/21 00:48:09;;;;;;;24.20;19.10;;;17.60;1.00;;;;;;4986125;28;20211;-75
2023/05/21 00:50:38;;;;;;;26.23;19.70;;;17.70;1.00;;;;;;4986474;28;20839;-73
2023/05/21 00:53:08;;;;;;;23.50;18.67;;;17.70;1.00;;;;;;4989502;28;20509;-74
2023/05/21 00:55:35;;;;;;;25.97;20.57;;;17.70;1.00;;;;;;4989147;28;20863;-74
2023/05/21 00:58:00;;;;;;;25.70;20.50;;;17.60;1.00;;;;;;4988388;28;20430;-73
2023/05/21 01:00:27;;;;;;;42.93;21.90;;;17.60;1.00;;;;;;4989963;28;20835;-74
2023/05/21 01:02:52;;;;;;;24.10;20.00;;;17.60;1.00;;;;;;4988382;28;20191;-74
2023/05/21 01:05:18;;;;;;;29.60;20.47;;;17.60;1.00;;;;;;4983245;28;20462;-75
2023/05/21 01:07:43;;;;;;;27.30;19.30;;;17.60;1.00;;;;;;4986389;28;20228;-74
2023/05/21 01:10:10;;;;;;;26.10;20.17;;;17.50;1.00;;;;;;4985247;28;20219;-73
2023/05/21 01:12:38;;;;;;;24.83;19.67;;;17.50;1.00;;;;;;4990436;28;20500;-74
2023/05/21 01:15:05;;;;;;;26.00;20.07;;;17.50;1.00;;;;;;4988393;28;20446;-73
2023/05/21 01:17:32;;;;;;;25.00;19.80;;;17.50;1.00;;;;;;4990465;28;20436;-74
2023/05/21 01:19:58;;;;;;;23.83;18.43;;;17.40;1.00;;;;;;4984405;28;20500;-73
2023/05/21 01:22:25;;;;;;;27.77;20.20;;;17.40;1.00;;;;;;4989302;28;20447;-74
2023/05/21 01:24:51;;;;;;;30.20;21.40;;;17.40;1.00;;;;;;4986267;28;21066;-73
2023/05/21 01:27:17;;;;;;;28.47;19.87;;;17.40;1.00;;;;;;4989826;28;20480;-74
2023/05/21 01:29:42;;;;;;;25.17;19.67;;;17.30;1.00;;;;;;4989303;28;20462;-74
2023/05/21 01:32:20;;;;;;;28.30;20.03;;;17.40;1.00;;;;;;4989995;28;20223;-74
2023/05/21 01:37:29;;;;;;;26.67;19.80;;;17.30;1.00;;;;;;5041466;23;20502;-74
2023/05/21 01:40:02;;;;;;;24.67;18.90;;;17.30;1.00;;;;;;5018108;28;20432;-74
2023/05/21 01:42:29;;;;;;;27.20;20.20;;;17.30;1.00;;;;;;5019052;28;20443;-72
2023/05/21 01:44:56;;;;;;;25.47;19.50;;;17.30;1.00;;;;;;5011308;28;20634;-74
2023/05/21 01:47:23;;;;;;;25.10;19.17;;;17.20;1.00;;;;;;5001248;28;20437;-73
2023/05/21 01:49:50;;;;;;;24.90;18.70;;;17.20;1.00;;;;;;4998850;28;20441;-74
2023/05/21 01:52:16;;;;;;;25.97;18.70;;;17.30;1.00;;;;;;5006142;28;20636;-74
2023/05/21 01:54:41;;;;;;;24.90;18.77;;;17.20;1.00;;;;;;4999327;28;20439;-74
2023/05/21 01:57:07;;;;;;;25.60;19.70;;;17.20;1.00;;;;;;4999652;28;20220;-74
2023/05/21 01:59:33;;;;;;;23.80;19.03;;;17.20;1.00;;;;;;4999273;28;20198;-74
2023/05/21 02:01:58;;;;;;;26.37;19.80;;;17.20;1.00;;;;;;5003309;28;20426;-74
2023/05/21 02:04:24;;;;;;;31.47;20.10;;;17.20;1.00;;;;;;4993453;28;20186;-74
2023/05/21 02:06:49;;;;;;;25.40;19.67;;;17.20;1.00;;;;;;4997835;28;20266;-74
2023/05/21 02:09:15;;;;;;;31.80;19.03;;;17.20;1.00;;;;;;5003803;28;20568;-73
2023/05/21 02:11:41;;;;;;;24.50;19.43;;;17.20;1.00;;;;;;4997719;28;20175;-74
2023/05/21 02:14:09;;;;;;;27.17;18.93;;;17.10;1.00;;;;;;4999310;28;20189;-76
2023/05/21 02:16:34;;;;;;;32.03;19.70;;;17.20;1.00;;;;;;5003060;28;20221;-73
2023/05/21 02:19:00;;;;;;;26.40;19.50;;;17.20;1.00;;;;;;4988713;28;20983;-74
2023/05/21 02:21:26;;;;;;;29.90;20.53;;;17.20;1.00;;;;;;4990988;28;20190;-74
2023/05/21 02:23:51;;;;;;;26.40;19.30;;;17.10;1.00;;;;;;4993391;28;20474;-74
2023/05/21 02:26:17;;;;;;;27.23;20.40;;;17.10;1.00;;;;;;4990876;28;20237;-74
2023/05/21 02:28:43;;;;;;;24.03;18.70;;;17.10;1.00;;;;;;4990010;28;20730;-73
2023/05/21 02:31:08;;;;;;;21.83;18.10;;;17.00;1.00;;;;;;4991777;28;20645;-74
2023/05/21 02:33:34;;;;;;;33.23;20.13;;;17.00;1.00;;;;;;4997641;28;20344;-74
2023/05/21 02:35:59;;;;;;;24.67;18.77;;;17.00;1.00;;;;;;4995534;28;20326;-73
2023/05/21 02:38:25;;;;;;;26.37;19.47;;;17.00;1.00;;;;;;5003942;28;20218;-74
2023/05/21 02:40:51;;;;;;;29.90;19.07;;;17.10;1.00;;;;;;4989695;28;20266;-74
2023/05/21 02:43:16;;;;;;;25.00;19.23;;;17.00;1.00;;;;;;5004131;28;20182;-74
2023/05/21 02:45:42;;;;;;;30.00;18.70;;;17.00;1.00;;;;;;4994830;28;20222;-72
2023/05/21 02:48:08;;;;;;;27.13;19.97;;;16.90;1.00;;;;;;4999119;28;20191;-74
2023/05/21 02:50:33;;;;;;;30.73;17.70;;;16.90;1.00;;;;;;4994271;28;20273;-74
2023/05/21 02:52:59;;;;;;;30.50;20.07;;;16.80;1.00;;;;;;4994402;28;20205;-73
2023/05/21 02:55:25;;;;;;;28.20;19.97;;;17.90;1.00;;;;;;4989049;28;20214;-74
2023/05/21 02:57:50;;;;;;;27.30;20.13;;;16.70;1.00;;;;;;4989584;28;20637;-74
2023/05/21 03:00:16;;;;;;;24.00;19.40;;;16.70;1.00;;;;;;4989563;28;20861;-74
2023/05/21 03:02:42;;;;;;;25.97;18.73;;;16.70;1.00;;;;;;4989703;28;20238;-73
2023/05/21 03:05:07;;;;;;;28.00;19.40;;;16.70;1.00;;;;;;4995726;28;20234;-72
2023/05/21 03:07:33;;;;;;;26.27;19.43;;;16.70;1.00;;;;;;4988449;28;20210;-74
2023/05/21 03:09:58;;;;;;;29.30;19.77;;;16.70;1.00;;;;;;4992338;28;20277;-74
2023/05/21 03:12:24;;;;;;;29.83;20.27;;;16.60;1.00;;;;;;5011348;28;20322;-73
2023/05/21 03:14:50;;;;;;;23.43;18.17;;;16.70;1.00;;;;;;4993793;28;20198;-74
2023/05/21 03:17:16;;;;;;;27.43;20.53;;;16.60;1.00;;;;;;4994328;28;20219;-74
2023/05/21 03:19:42;;;;;;;27.30;20.60;;;16.60;1.00;;;;;;5001275;28;20187;-74
2023/05/21 03:22:08;;;;;;;26.93;19.47;;;16.60;1.00;;;;;;4994850;28;20446;-74
2023/05/21 03:24:35;;;;;;;26.87;18.60;;;16.60;1.00;;;;;;5001812;28;20453;-73
2023/05/21 03:27:01;;;;;;;26.80;18.77;;;16.70;1.00;;;;;;5016275;28;20463;-74
2023/05/21 03:29:27;;;;;;;28.30;18.97;;;16.70;1.00;;;;;;4999729;28;20529;-74
2023/05/21 03:31:53;;;;;;;27.07;18.90;;;16.70;1.00;;;;;;5014130;28;20206;-74
2023/05/21 03:34:19;;;;;;;25.33;18.67;;;16.70;1.00;;;;;;5001418;28;20445;-74
2023/05/21 03:36:45;;;;;;;24.07;19.07;;;16.60;1.00;;;;;;4998678;28;20473;-74
2023/05/21 03:39:11;;;;;;;26.10;18.87;;;16.60;1.00;;;;;;4999044;28;20668;-74
2023/05/21 03:41:36;;;;;;;30.27;19.67;;;16.60;1.00;;;;;;4998206;28;20445;-74
2023/05/21 03:44:02;;;;;;;27.97;19.63;;;16.60;1.00;;;;;;5003223;28;21099;-74
2023/05/21 03:46:27;;;;;;;29.40;19.40;;;16.50;1.00;;;;;;5013888;28;20221;-74
2023/05/21 03:48:53;;;;;;;25.07;18.50;;;16.40;1.00;;;;;;4995537;28;20194;-75
2023/05/21 03:51:19;;;;;;;25.90;18.80;;;16.40;1.00;;;;;;4998522;28;20194;-74
2023/05/21 03:53:45;;;;;;;25.27;19.80;;;16.40;1.00;;;;;;5001722;28;20561;-74
2023/05/21 03:56:10;;;;;;;29.77;19.27;;;16.40;1.00;;;;;;4988343;28;20462;-74
2023/05/21 03:58:37;;;;;;;28.87;20.00;;;16.40;1.00;;;;;;4996195;28;20199;-74
2023/05/21 04:01:03;;;;;;;26.23;18.10;;;16.40;1.00;;;;;;4991624;28;20218;-74
2023/05/21 04:03:29;;;;;;;23.70;18.20;;;16.30;1.00;;;;;;5003220;28;20755;-74
2023/05/21 04:05:55;;;;;;;28.60;20.40;;;16.30;1.00;;;;;;4997843;28;20472;-74
2023/05/21 04:08:20;;;;;;;24.20;18.80;;;16.40;1.00;;;;;;4994267;28;20248;-74
2023/05/21 04:10:46;;;;;;;24.57;18.90;;;16.40;1.00;;;;;;5006318;28;20182;-74
2023/05/21 04:13:11;;;;;;;28.40;18.60;;;16.40;1.00;;;;;;4997989;28;20182;-74
2023/05/21 04:15:37;;;;;;;23.93;18.30;;;16.40;1.00;;;;;;5006295;28;20703;-74
2023/05/21 04:18:03;;;;;;;28.40;19.30;;;16.40;1.00;;;;;;5001796;28;20595;-74
2023/05/21 04:20:29;;;;;;;26.77;19.90;;;16.50;1.00;;;;;;5010243;28;20195;-74
2023/05/21 04:22:55;;;;;;;26.77;19.03;;;16.50;1.00;;;;;;4991036;28;20452;-75
2023/05/21 04:25:22;;;;;;;28.13;18.10;;;16.40;1.00;;;;;;4993303;28;20218;-74
2023/05/21 04:27:48;;;;;;;28.33;19.33;;;16.40;1.00;;;;;;5021177;28;20445;-74
2023/05/21 04:30:14;;;;;;;28.37;19.00;;;16.60;1.00;;;;;;4999084;28;20457;-74
2023/05/21 04:32:39;;;;;;;26.40;19.53;;;16.40;1.00;;;;;;5004389;28;20796;-74
2023/05/21 04:35:05;;;;;;;27.57;19.73;;;16.40;1.00;;;;;;4999514;28;20658;-74
2023/05/21 04:37:33;;;;;;;26.77;19.10;;;16.40;1.00;;;;;;4998088;28;20645;-74
2023/05/21 04:40:00;;;;;;;26.20;19.37;;;16.30;1.00;;;;;;5005770;28;20461;-74
2023/05/21 04:42:26;;;;;;;26.13;18.57;;;16.30;1.00;;;;;;5003232;28;20437;-74
2023/05/21 04:44:51;;;;;;;25.60;19.30;;;16.30;1.00;;;;;;4997671;28;20469;-74
2023/05/21 04:47:20;;;;;;;24.97;18.60;;;16.30;1.00;;;;;;4998363;28;20291;-74
2023/05/21 04:49:45;;;;;;;27.20;18.67;;;16.30;1.00;;;;;;5013781;28;20190;-74
2023/05/21 04:52:11;;;;;;;26.20;19.60;;;16.30;1.00;;;;;;4992354;28;20444;-74
2023/05/21 04:54:37;;;;;;;27.07;19.33;;;16.30;1.00;;;;;;4994369;28;20190;-75
2023/05/21 04:57:07;;;;;;;24.63;18.27;;;16.30;1.00;;;;;;4993046;28;20728;-73
2023/05/21 04:59:33;;;;;;;27.67;19.37;;;16.20;1.00;;;;;;5003009;28;20432;-75
2023/05/21 05:01:59;;;;;;;28.20;17.80;;;16.20;1.00;;;;;;5005051;28;20440;-75
2023/05/21 05:04:24;;;;;;;25.33;18.13;;;16.20;1.00;;;;;;5000269;28;20438;-74
2023/05/21 05:06:51;;;;;;;28.13;18.87;;;16.30;1.00;;;;;;5005499;28;20202;-75
2023/05/21 05:09:17;;;;;;;26.43;19.57;;;16.30;1.00;;;;;;5000418;28;20172;-75
2023/05/21 05:11:42;;;;;;;32.67;19.13;;;16.20;1.00;;;;;;4991208;28;20851;-75
2023/05/21 05:14:08;;;;;;;24.77;18.43;;;16.20;1.00;;;;;;4997329;28;20432;-75
2023/05/21 05:16:34;;;;;;;22.53;18.13;;;16.30;1.00;;;;;;5002511;28;20422;-74
2023/05/21 05:19:00;;;;;;;28.03;20.03;;;16.40;1.00;;;;;;4996132;28;20210;-75
2023/05/21 05:21:26;;;;;;;27.60;18.60;;;16.40;1.00;;;;;;4990015;28;20187;-75
2023/05/21 05:23:51;;;;;;;30.57;19.80;;;16.40;1.00;;;;;;5010081;28;20558;-75
2023/05/21 05:26:17;;;;;;;27.70;18.87;;;16.40;1.00;;;;;;4992096;28;20296;-75
2023/05/21 05:28:42;;;;;;;25.50;19.10;;;16.50;1.00;;;;;;4999006;28;20439;-74
2023/05/21 05:31:08;;;;;;;23.87;17.80;;;16.50;1.00;;;;;;4998165;28;20183;-74
2023/05/21 05:33:34;;;;;;;26.57;19.30;;;16.50;1.00;;;;;;5001201;28;20258;-76
2023/05/21 05:35:59;;;;;;;26.80;19.67;;;16.50;1.00;;;;;;4994421;28;20613;-74
2023/05/21 05:38:25;;;;;;;24.33;18.67;;;16.50;1.00;;;;;;5016356;28;20231;-75
2023/05/21 05:40:51;;;;;;;24.60;18.60;;;16.60;1.00;;;;;;5003013;28;20179;-73
2023/05/21 05:43:16;;;;;;;22.43;18.10;;;16.70;1.00;;;;;;4995057;28;20441;-74
2023/05/21 05:45:42;;;;;;;26.40;19.57;;;16.70;1.00;;;;;;4996379;28;20222;-75
2023/05/21 05:48:07;;;;;;;26.97;18.90;;;16.80;1.00;;;;;;4992835;28;20183;-74
2023/05/21 05:50:33;;;;;;;28.07;19.20;;;16.80;1.00;;;;;;5001334;28;20206;-74
2023/05/21 05:52:58;;;;;;;26.80;19.33;;;16.90;1.00;;;;;;4992083;28;20215;-75
2023/05/21 05:55:25;;;;;;;26.03;18.97;;;16.90;1.00;;;;;;4998613;28;20409;-74
2023/05/21 05:57:51;;;;;;;28.53;20.13;;;16.90;1.00;;;;;;4990343;28;20712;-74
2023/05/21 06:00:17;;;;;;;29.57;19.30;;;17.00;1.00;;;;;;4988812;28;20442;-74
2023/05/21 06:02:42;;;;;;;24.43;18.63;;;17.10;1.00;;;;;;5012503;28;20270;-74
2023/05/21 06:05:08;;;;;;;25.00;18.60;;;17.20;1.00;;;;;;5005521;28;20462;-75
2023/05/21 06:07:37;;;;;;;25.13;19.00;;;17.30;1.00;;;;;;4997185;28;20182;-75
2023/05/21 06:10:04;;;;;;;27.63;19.63;;;17.30;1.00;;;;;;5002533;28;20442;-74
2023/05/21 06:12:29;;;;;;;25.93;18.60;;;17.40;1.00;;;;;;4996301;28;20659;-75
2023/05/21 06:14:55;;;;;;;32.90;19.97;;;17.40;1.00;;;;;;5011647;28;22011;-74
2023/05/21 06:17:20;;;;;;;28.67;20.50;;;17.50;1.00;;;;;;5002728;28;20214;-74
2023/05/21 06:19:46;;;;;;;25.67;19.20;;;17.70;1.00;;;;;;4995720;28;20175;-75
2023/05/21 06:22:11;;;;;;;27.37;19.33;;;17.80;1.00;;;;;;4993521;28;20650;-75
2023/05/21 06:24:37;;;;;;;28.43;21.10;;;17.90;1.00;;;;;;4992412;28;20187;-74
2023/05/21 06:27:02;;;;;;;30.00;19.10;;;18.10;1.00;;;;;;4988524;28;20246;-74
2023/05/21 06:29:28;;;;;;;38.13;20.90;;;18.20;1.00;;;;;;4993310;28;20202;-75
2023/05/21 06:31:54;;;;;;;27.80;20.10;;;18.30;1.00;;;;;;4998250;28;20182;-75
2023/05/21 06:34:19;;;;;;;27.50;19.20;;;18.50;1.00;;;;;;5013787;28;20526;-74
2023/05/21 06:36:45;;;;;;;28.13;20.00;;;18.60;1.00;;;;;;4997178;28;20275;-76
2023/05/21 06:39:10;;;;;;;26.13;19.93;;;18.80;1.00;;;;;;4986419;28;20191;-71
2023/05/21 06:41:36;;;;;;;26.83;19.10;;;19.00;1.00;;;;;;5019567;28;20191;-74
2023/05/21 06:44:02;;;;;;;25.83;19.13;;;19.10;1.00;;;;;;5002098;28;20213;-76
2023/05/21 06:46:27;;;;;;;25.50;19.50;;;19.30;1.00;;;;;;5012432;28;20680;-75
2023/05/21 06:48:53;;;;;;;27.50;19.70;;;19.40;1.00;;;;;;4999009;28;20189;-74
2023/05/21 06:51:18;;;;;;;25.67;18.00;;;20.90;1.00;;;;;;4992738;28;20194;-75
2023/05/21 06:53:44;;;;;;;27.00;19.70;;;19.80;1.00;;;;;;5012475;28;20174;-74
2023/05/21 06:56:09;;;;;;;25.90;19.30;;;20.00;1.00;;;;;;4991676;28;20652;-74
2023/05/21 06:58:35;;;;;;;27.40;19.77;;;20.20;1.00;;;;;;4998585;28;20186;-75
2023/05/21 07:01:00;;;;;;;27.37;18.57;;;20.40;1.00;;;;;;4998939;28;20189;-74
2023/05/21 07:03:26;;;;;;;24.23;17.93;;;20.50;1.00;;;;;;5000221;28;20341;-75
2023/05/21 07:05:52;;;;;;;24.20;19.10;;;20.60;1.00;;;;;;5002621;28;20406;-75
2023/05/21 07:08:18;;;;;;;24.07;18.90;;;20.60;1.00;;;;;;4997350;28;20487;-74
2023/05/21 07:10:45;;;;;;;23.70;19.00;;;20.70;1.00;;;;;;4994783;28;20813;-75
2023/05/21 07:13:11;;;;;;;25.50;18.27;;;20.80;1.00;;;;;;4996651;28;20506;-72
2023/05/21 07:15:36;;;;;;;24.20;18.63;;;21.10;1.00;;;;;;5016786;28;20620;-75
2023/05/21 07:18:02;;;;;;;24.13;17.20;;;21.20;1.00;;;;;;5003340;28;20458;-74
2023/05/21 07:20:28;;;;;;;21.00;17.57;;;21.50;1.00;;;;;;4998969;28;20186;-74
2023/05/21 07:22:53;;;;;;;23.33;18.10;;;21.80;1.00;;;;;;4994462;28;20665;-74
2023/05/21 07:25:19;;;;;;;21.77;16.80;;;21.90;1.00;;;;;;5000247;28;20284;-75
2023/05/21 07:27:45;;;;;;;25.07;17.80;;;22.00;1.00;;;;;;5009692;28;20280;-75
2023/05/21 07:30:10;;;;;;;25.50;18.33;;;22.10;1.00;;;;;;5005820;28;20183;-72
2023/05/21 07:32:36;;;;;;;26.47;19.00;;;22.20;1.00;;;;;;4995348;28;20248;-72
2023/05/21 07:35:01;;;;;;;23.40;18.10;;;22.10;1.00;;;;;;4995168;28;20186;-74
2023/05/21 07:37:27;;;;;;;22.63;16.80;;;22.10;1.00;;;;;;5051790;23;20217;-75
2023/05/21 07:39:54;;;;;;;22.87;16.83;;;22.40;1.00;;;;;;4991668;28;20175;-75
2023/05/21 07:42:20;;;;;;;22.47;17.27;;;22.50;1.00;;;;;;4989008;28;20934;-75
2023/05/21 07:44:45;;;;;;;21.70;17.20;;;22.70;1.00;;;;;;4993460;28;20446;-75
2023/05/21 07:47:11;;;;;;;25.47;16.60;;;23.00;1.00;;;;;;4986051;28;20297;-74
2023/05/21 07:49:36;;;;;;;20.30;16.20;;;23.20;1.00;;;;;;4982550;28;20380;-74
2023/05/21 07:52:02;;;;;;;18.87;16.60;;;23.60;1.00;;;;;;4970824;28;20179;-74
2023/05/21 07:54:28;;;;;;;23.30;17.30;;;24.10;1.00;;;;;;4973682;28;20740;-75
2023/05/21 07:56:53;;;;;;;18.97;15.50;;;24.10;1.00;;;;;;4974948;28;20550;-75
2023/05/21 07:59:19;;;;;;;21.03;16.70;;;24.20;1.00;;;;;;4976448;28;20210;-74
2023/05/21 08:01:45;;;;;;;20.00;15.83;;;24.00;1.00;;;;;;4979242;28;20779;-73
2023/05/21 08:04:11;;;;;;;19.30;15.93;;;24.00;1.00;;;;;;4976916;28;20206;-76
2023/05/21 08:06:36;;;;;;;18.07;15.13;;;24.20;1.00;;;;;;4975400;28;20233;-75
2023/05/21 08:09:03;;;;;;;20.23;15.90;;;24.40;1.00;;;;;;4975868;28;20437;-75
2023/05/21 08:11:29;;;;;;;19.80;15.70;;;24.30;1.00;;;;;;4976729;28;20174;-75
2023/05/21 08:13:55;;;;;;;20.53;14.73;;;24.10;1.00;;;;;;4972225;28;20850;-75
2023/05/21 08:16:22;;;;;;;24.25;16.90;;;24.20;1.00;;;;;;4975696;28;20444;-75
2023/05/21 08:18:48;;;;;;;19.27;16.10;;;24.50;1.00;;;;;;4976054;28;20669;-75
2023/05/21 08:21:13;;;;;;;18.57;15.80;;;24.70;1.00;;;;;;4979446;28;20452;-73
2023/05/21 08:23:39;;;;;;;22.80;15.13;;;25.40;1.00;;;;;;4982587;28;20195;-75
2023/05/21 08:26:05;;;;;;;18.93;13.93;;;25.30;1.00;;;;;;4981654;28;20218;-74
2023/05/21 08:28:31;;;;;;;18.37;13.50;;;25.20;1.00;;;;;;4977458;28;20197;-74
2023/05/21 08:30:57;;;;;;;15.73;13.80;;;25.10;1.00;;;;;;4981392;28;20810;-74
2023/05/21 08:33:22;;;;;;;18.03;14.17;;;25.40;1.00;;;;;;4978814;28;20294;-74
2023/05/21 08:35:48;;;;;;;18.17;14.30;;;25.80;1.00;;;;;;4977243;28;20278;-75
2023/05/21 08:38:15;;;;;;;14.13;12.27;;;26.30;1.00;;;;;;4978116;28;20199;-74
2023/05/21 08:40:41;;;;;;;18.00;13.97;;;27.00;1.00;;;;;;4978793;28;20211;-75
2023/05/21 08:43:11;;;;;;;16.10;13.70;;;27.30;1.00;;;;;;4969734;28;20473;-75
2023/05/21 08:45:41;;;;;;;16.40;13.33;;;28.00;1.00;;;;;;4977274;28;20700;-75
2023/05/21 08:48:10;;;;;;;17.07;13.70;;;28.10;1.00;;;;;;4975050;28;20966;-74
2023/05/21 08:50:35;;;;;;;17.03;12.93;;;28.50;1.00;;;;;;4972300;28;20179;-75
2023/05/21 08:53:01;;;;;;;14.50;12.30;;;29.30;1.00;;;;;;4971803;28;20179;-76
2023/05/21 08:55:27;;;;;;;14.98;12.18;;;31.30;1.00;;;;;;4978794;28;20253;-74
2023/05/21 08:57:53;;;;;;;19.58;12.93;;;31.30;1.00;;;;;;4973767;28;20666;-75
2023/05/21 09:00:21;;;;;;;14.98;12.15;;;31.90;1.00;;;;;;4976222;28;20269;-75
2023/05/21 09:02:47;;;;;;;13.80;11.57;;;32.20;1.00;;;;;;4977156;28;20673;-75
2023/05/21 09:05:14;;;;;;;13.55;11.93;;;32.50;1.00;;;;;;4972732;28;20218;-76
2023/05/21 09:07:54;;;;;;;14.02;12.52;;;32.30;1.00;;;;;;4977240;28;20762;-76
2023/05/21 09:10:25;;;;;;;14.52;12.10;;;31.70;1.00;;;;;;4977618;28;20736;-75
2023/05/21 09:12:51;;;;;;;16.45;13.02;;;31.10;1.00;;;;;;4978854;28;20182;-73
2023/05/21 09:15:17;;;;;;;14.90;13.32;;;30.70;1.00;;;;;;4975282;28;20191;-71
2023/05/21 09:17:46;;;;;;;14.02;12.50;;;30.00;1.00;;;;;;4982220;28;20271;-72
2023/05/21 09:20:15;;;;;;;14.18;12.70;;;29.50;1.00;;;;;;4977545;28;20183;-72
2023/05/21 09:22:48;;;;;;;15.60;13.43;;;28.90;1.00;;;;;;4979033;28;20598;-73
2023/05/21 09:25:20;;;;;;;14.38;12.25;;;28.90;1.00;;;;;;4980434;28;20198;-73
2023/05/21 09:27:46;;;;;;;13.20;11.90;;;29.30;1.00;;;;;;4975291;28;20256;-71
2023/05/21 09:30:16;;;;;;;13.40;11.82;;;29.90;1.00;;;;;;4983558;28;20254;-73
2023/05/21 09:32:45;;;;;;;15.45;12.50;;;30.20;1.00;;;;;;4977066;28;20258;-72
2023/05/21 09:35:12;;;;;;;15.18;12.13;;;31.30;1.00;;;;;;4980628;28;20186;-73
2023/05/21 09:37:42;;;;;;;13.30;12.00;;;31.90;1.00;;;;;;4941104;28;1107885;-73
2023/05/21 09:40:18;;;;;;;15.30;12.80;;;32.90;1.00;;;;;;4987181;28;20317;-73
2023/05/21 09:42:52;;;;;;;13.38;11.98;;;32.70;1.00;;;;;;4983774;28;20206;-72
2023/05/21 09:45:23;;;;;;;17.08;12.40;;;33.10;1.00;;;;;;4975864;28;20294;-72
2023/05/21 09:47:51;;;;;;;12.70;11.40;;;33.50;1.00;;;;;;4980870;28;20290;-73
2023/05/21 09:50:21;;;;;;;13.75;11.90;;;34.00;1.00;;;;;;4978214;28;20178;-73
2023/05/21 09:52:54;;;;;;;12.77;11.48;;;34.50;1.00;;;;;;4980068;28;20270;-73
2023/05/21 09:55:27;;;;;;;15.43;11.48;;;34.10;1.00;;;;;;4976201;28;20222;-73
2023/05/21 09:57:53;;;;;;;12.60;11.30;;;33.40;1.00;;;;;;4979591;28;20577;-73
2023/05/21 10:00:23;;;;;;;13.45;11.68;;;33.20;1.00;;;;;;4979495;28;20179;-73
2023/05/21 10:02:53;;;;;;;13.70;11.38;;;33.10;1.00;;;;;;4976437;28;20489;-74
2023/05/21 10:05:19;;;;;;;12.90;11.52;;;33.40;1.00;;;;;;4986533;28;20214;-72
2023/05/21 10:07:50;;;;;;;11.90;10.70;;;33.60;1.00;;;;;;4974536;28;20202;-72
2023/05/21 10:10:18;;;;;;;17.15;11.93;;;34.30;1.00;;;;;;4974707;28;20182;-73
2023/05/21 10:12:46;;;;;;;12.55;11.35;;;34.70;1.00;;;;;;4973170;28;20634;-72
2023/05/21 10:15:15;;;;;;;12.57;11.27;;;34.90;1.00;;;;;;4979404;28;20221;-72
2023/05/21 10:17:42;;;;;;;12.73;10.90;;;35.50;1.00;;;;;;4976110;28;20222;-73
2023/05/21 10:20:10;;;;;;;12.68;11.35;;;35.80;1.00;;;;;;4982235;28;20210;-73
2023/05/21 10:22:36;;;;;;;12.98;11.68;;;35.60;1.00;;;;;;4979018;28;20194;-73
2023/05/21 10:25:02;;;;;;;12.82;11.52;;;35.50;1.00;;;;;;4974303;28;20674;-73
2023/05/21 10:27:29;;;;;;;11.93;10.75;;;35.60;1.00;;;;;;4982236;28;20214;-72
2023/05/21 10:29:57;;;;;;;13.60;12.13;;;35.80;1.00;;;;;;4984246;28;20179;-73
2023/05/21 10:32:25;;;;;;;14.65;11.57;;;36.20;1.00;;;;;;4983268;28;20278;-73
2023/05/21 10:34:52;;;;;;;12.52;10.63;;;36.90;1.00;;;;;;4975669;28;20211;-73
2023/05/21 10:37:21;;;;;;;12.50;11.20;;;36.90;1.00;;;;;;4976930;28;20206;-74
2023/05/21 10:39:49;;;;;;;15.68;11.38;;;37.20;1.00;;;;;;4982777;28;20210;-73
2023/05/21 10:42:46;;;;;;;12.20;11.07;;;37.30;1.00;;;;;;4978934;28;20198;-73
2023/05/21 10:45:33;;;;;;;12.35;11.15;;;37.60;1.00;;;;;;4974246;28;20218;-73
2023/05/21 10:48:04;;;;;;;12.32;10.82;;;37.80;1.00;;;;;;4976465;28;20175;-73
2023/05/21 10:50:30;;;;;;;12.18;10.98;;;37.90;1.00;;;;;;4981705;28;20176;-73
2023/05/21 10:53:31;;;;;;;12.23;10.07;;;37.90;1.00;;;;;;4974706;28;20190;-73
2023/05/21 10:56:23;;;;;;;12.82;11.55;;;38.10;1.00;;;;;;4978615;28;20681;-74
2023/05/21 10:59:03;;;;;;;14.80;11.25;;;38.60;1.00;;;;;;4975705;28;20183;-73
2023/05/21 11:01:32;;;;;;;11.45;10.35;;;39.00;1.00;;;;;;4973839;28;20309;-73
2023/05/21 11:03:58;;;;;;;11.50;10.40;;;39.40;1.00;;;;;;4974047;28;20211;-73
2023/05/21 11:06:27;;;;;;;11.55;10.35;;;39.90;1.00;;;;;;4979008;28;20253;-72
2023/05/21 11:08:52;;;;;;;11.48;10.32;;;40.90;1.00;;;;;;4973952;28;20658;-73
2023/05/21 11:11:45;;;;;;;12.13;10.82;;;39.80;1.00;;;;;;4979621;28;20179;-73
2023/05/21 11:14:33;;;;;;;11.98;10.88;;;40.10;1.00;;;;;;4976913;28;20190;-73
2023/05/21 11:17:08;;;;;;;15.35;10.35;;;40.50;1.00;;;;;;4973900;28;20199;-76
2023/05/21 11:19:46;;;;;;;11.88;10.23;;;40.90;1.00;;;;;;4970657;28;20285;-75
2023/05/21 11:22:23;;;;;;;12.82;10.35;;;41.30;1.00;;;;;;4978905;28;20183;-76
2023/05/21 11:24:50;;;;;;;11.02;9.98;;;40.80;1.00;;;;;;4978631;28;20325;-76
2023/05/21 11:27:40;;;;;;;11.85;10.63;;;40.40;1.00;;;;;;4991532;28;20207;-76
2023/05/21 11:30:10;;;;;;;11.63;10.43;;;40.60;1.00;;;;;;4985528;28;20182;-76
2023/05/21 11:33:00;;;;;;;13.75;10.30;;;40.70;1.00;;;;;;4984240;28;20185;-76
2023/05/21 11:35:26;;;;;;;11.65;10.23;;;40.90;1.00;;;;;;4976395;28;20270;-77
2023/05/21 11:37:52;;;;;;;14.40;12.98;;;40.80;1.00;;;;;;4975016;28;20233;-79
2023/05/21 11:40:22;;;;;;;12.80;10.68;;;41.30;1.00;;;;;;4975167;28;20274;-79
2023/05/21 11:42:50;;;;;;;11.75;10.07;;;41.50;1.00;;;;;;4975949;28;20202;-78
2023/05/21 11:45:18;;;;;;;11.07;9.98;;;41.00;1.00;;;;;;4969580;28;20218;-78
2023/05/21 11:47:43;;;;;;;14.70;13.10;;;41.30;1.00;;;;;;4980570;28;20301;-78
2023/05/21 11:50:12;;;;;;;13.07;11.77;;;40.50;1.00;;;;;;4982699;28;20584;-78
2023/05/21 11:52:38;;;;;;;14.18;12.68;;;40.30;1.00;;;;;;4977155;28;20185;-78
2023/05/21 11:55:06;;;;;;;14.85;10.52;;;40.10;1.00;;;;;;4976150;28;20183;-73
2023/05/21 11:57:31;;;;;;;10.77;9.68;;;39.20;1.00;;;;;;4978367;28;20700;-75
2023/05/21 12:00:00;;;;;;;10.50;9.23;;;39.20;1.00;;;;;;4981841;28;20224;-75
2023/05/21 12:02:29;;;;;;;10.60;9.60;;;39.90;1.00;;;;;;4972066;28;20557;-74
2023/05/21 12:04:59;;;;;;;10.25;9.10;;;40.20;1.00;;;;;;4977694;28;20179;-77
2023/05/21 12:07:30;;;;;;;10.80;9.73;;;40.30;1.00;;;;;;4977245;28;20237;-76
2023/05/21 12:09:56;;;;;;;13.15;10.00;;;40.10;1.00;;;;;;4970668;28;20598;-76
2023/05/21 12:12:25;;;;;;;11.93;10.18;;;40.00;1.00;;;;;;4971261;28;20729;-76
2023/05/21 12:14:53;;;;;;;13.00;10.23;;;40.30;1.00;;;;;;4970642;28;20195;-76
2023/05/21 12:17:19;;;;;;;10.07;9.13;;;40.30;1.00;;;;;;4970966;28;20223;-76
2023/05/21 12:19:46;;;;;;;9.05;8.07;;;40.10;1.00;;;;;;4970787;28;20861;-76
2023/05/21 12:22:15;;;;;;;9.13;7.70;;;39.70;1.00;;;;;;4973452;28;20503;-76
2023/05/21 12:24:42;;;;;;;8.50;7.32;;;38.80;1.00;;;;;;4972209;28;20207;-75
2023/05/21 12:27:09;;;;;;;11.38;7.28;;;37.90;1.00;;;;;;4970719;28;20215;-76
2023/05/21 12:29:39;;;;;;;10.25;7.90;;;37.00;1.00;;;;;;4970714;28;20206;-75
2023/05/21 12:32:07;;;;;;;14.02;7.55;;;36.60;1.00;;;;;;4975277;28;20645;-75
2023/05/21 12:34:53;;;;;;;9.60;7.90;;;36.40;1.00;;;;;;4976944;28;20191;-76
2023/05/21 12:37:21;;;;;;;8.70;7.80;;;36.10;1.00;;;;;;4982477;28;20220;-76
2023/05/21 12:39:49;;;;;;;9.68;8.13;;;35.80;1.00;;;;;;4974209;28;20182;-75
2023/05/21 12:42:15;;;;;;;10.43;7.05;;;35.40;1.00;;;;;;4976856;28;20187;-75